Time;durP1;ratioP1;P1;durP2;ratioP2;P2;SDS_P1;SDS_P2;PMS_P1;PMS_P2;Temp;Humidity;BMP_temperature;BMP_pressure;BME280_temperature;BME280_humidity;BME280_pressure;Samples;Min_cycle;Max_cycle;Signal;HPM_P1;HPM_P2
2022/04/12 00:02:28;;;;;;;8.55;7.43;;;;;;;3.12;71.50;100292.91;10202069;29;20056;-72
2022/04/12 00:07:30;;;;;;;8.43;6.07;;;;;;;2.71;71.80;100291.91;10218313;29;20048;-72
2022/04/12 00:12:31;;;;;;;9.05;6.05;;;;;;;2.68;72.00;100297.09;10220269;29;20091;-72
2022/04/12 00:22:55;;;;;;;8.55;5.82;;;;;;;2.76;71.38;100285.00;10219068;29;20050;-72
2022/04/12 00:27:58;;;;;;;7.55;5.72;;;;;;;2.52;71.49;100290.97;10221906;29;20091;-72
2022/04/12 00:33:00;;;;;;;7.95;6.30;;;;;;;2.60;72.42;100284.94;10223790;29;20050;-72
2022/04/12 00:38:13;;;;;;;13.45;7.65;;;;;;;2.16;73.04;100290.75;10225000;29;20044;-72
2022/04/12 00:43:25;;;;;;;8.82;7.70;;;;;;;2.40;73.91;100282.25;10223953;29;20054;-73
2022/04/12 00:48:30;;;;;;;10.27;6.55;;;;;;;2.58;72.99;100278.88;10222312;29;20040;-73
2022/04/12 00:53:32;;;;;;;7.07;6.38;;;;;;;2.29;72.71;100277.00;10222306;29;20086;-73
2022/04/12 00:58:34;;;;;;;9.55;5.82;;;;;;;1.97;74.01;100288.03;10222090;29;20054;-73
2022/04/12 01:03:36;;;;;;;6.70;5.90;;;;;;;2.26;73.15;100282.19;10222198;29;20469;-72
2022/04/12 01:08:38;;;;;;;7.90;5.38;;;;;;;2.31;72.96;100279.63;10223039;29;20064;-73
2022/04/12 01:13:39;;;;;;;14.35;5.00;;;;;;;2.37;72.35;100280.50;10221921;29;20144;-73
2022/04/12 01:18:41;;;;;;;11.05;5.53;;;;;;;2.16;73.41;100268.25;10220450;29;20573;-73
2022/04/12 01:24:05;;;;;;;6.35;4.45;;;;;;;2.00;73.70;100269.06;10215589;23;20048;-74
2022/04/12 01:29:06;;;;;;;8.02;4.80;;;;;;;1.95;73.91;100271.63;10181031;29;20064;-75
2022/04/12 01:34:08;;;;;;;6.68;5.43;;;;;;;1.83;74.57;100268.94;10147982;29;20392;-74
2022/04/12 01:39:10;;;;;;;9.68;5.47;;;;;;;1.96;73.80;100262.97;10145395;29;20498;-74
2022/04/12 01:44:11;;;;;;;8.77;5.88;;;;;;;1.70;75.01;100264.50;10147168;29;20100;-74
2022/04/12 01:49:13;;;;;;;7.63;5.80;;;;;;;1.58;75.70;100262.66;10145117;29;20539;-74
2022/04/12 01:54:14;;;;;;;26.90;11.88;;;;;;;1.60;75.60;100255.78;10144162;29;20057;-74
2022/04/12 01:59:16;;;;;;;37.13;12.63;;;;;;;1.85;74.59;100262.00;10142974;29;20044;-73
2022/04/12 02:04:18;;;;;;;28.88;9.27;;;;;;;1.75;74.71;100252.44;10147407;29;20051;-73
2022/04/12 02:09:19;;;;;;;21.23;7.07;;;;;;;1.43;75.06;100257.38;10142857;29;20052;-74
2022/04/12 02:14:22;;;;;;;13.60;6.00;;;;;;;1.34;75.75;100260.75;10146838;29;20063;-74
2022/04/12 02:19:24;;;;;;;16.88;6.75;;;;;;;1.23;76.39;100268.41;10144586;29;20100;-74
2022/04/12 02:24:25;;;;;;;18.85;7.13;;;;;;;1.49;74.56;100265.19;10145660;29;20082;-74
2022/04/12 02:29:27;;;;;;;16.40;7.00;;;;;;;1.43;75.19;100273.78;10143306;29;20491;-74
2022/04/12 02:34:28;;;;;;;11.30;7.05;;;;;;;1.38;75.52;100272.00;10143101;29;20055;-74
2022/04/12 02:39:30;;;;;;;17.50;6.38;;;;;;;1.28;76.05;100265.84;10157403;29;20422;-73
2022/04/12 02:44:32;;;;;;;11.35;7.07;;;;;;;1.19;76.43;100265.75;10142035;29;20048;-74
2022/04/12 02:49:33;;;;;;;11.55;6.88;;;;;;;1.17;76.49;100257.13;10146357;29;20518;-74
2022/04/12 02:54:35;;;;;;;11.20;6.20;;;;;;;1.24;76.17;100266.72;10156609;29;20053;-74
2022/04/12 02:59:36;;;;;;;11.35;5.95;;;;;;;1.10;77.40;100266.53;10142275;29;20104;-74
2022/04/12 03:04:40;;;;;;;9.80;5.63;;;;;;;1.08;76.61;100264.81;10142223;29;20048;-73
2022/04/12 03:09:42;;;;;;;8.32;5.35;;;;;;;1.08;77.40;100259.63;10145661;29;20049;-74
2022/04/12 03:14:44;;;;;;;7.78;5.57;;;;;;;1.08;77.28;100257.91;10141679;29;20052;-73
2022/04/12 03:19:49;;;;;;;9.30;5.78;;;;;;;1.33;77.05;100252.94;10140512;29;20123;-73
2022/04/12 03:24:51;;;;;;;11.25;5.30;;;;;;;1.51;75.58;100254.00;10139123;29;20060;-73
2022/04/12 03:29:53;;;;;;;8.80;5.80;;;;;;;1.20;75.85;100267.53;10142277;29;20040;-73
2022/04/12 03:34:54;;;;;;;5.22;4.57;;;;;;;1.04;76.26;100253.53;10139238;29;20486;-74
2022/04/12 03:39:56;;;;;;;7.32;4.65;;;;;;;0.98;77.00;100266.44;10137991;29;20052;-73
2022/04/12 03:44:58;;;;;;;10.15;5.22;;;;;;;1.15;76.40;100259.72;10140455;29;20415;-74
2022/04/12 03:49:59;;;;;;;10.70;5.97;;;;;;;1.19;76.27;100265.75;10139880;29;20044;-74
2022/04/12 03:55:01;;;;;;;17.27;6.00;;;;;;;1.13;75.55;100263.13;10156507;29;20066;-75
2022/04/12 04:00:08;;;;;;;17.40;6.30;;;;;;;1.50;75.13;100259.16;10154369;29;20048;-74
2022/04/12 04:05:10;;;;;;;15.60;6.80;;;;;;;1.62;74.38;100254.06;10160594;29;20045;-74
2022/04/12 04:10:11;;;;;;;14.50;5.88;;;;;;;1.33;74.11;100255.53;10161378;29;20414;-75
2022/04/12 04:15:14;;;;;;;10.95;6.13;;;;;;;1.24;74.82;100254.63;10132807;29;20526;-74
2022/04/12 04:20:17;;;;;;;9.57;5.55;;;;;;;1.67;73.17;100260.16;10148447;29;20053;-74
2022/04/12 04:25:19;;;;;;;8.75;6.00;;;;;;;1.60;73.17;100258.38;10148453;29;20059;-73
2022/04/12 04:30:21;;;;;;;12.05;4.82;;;;;;;1.92;70.97;100253.44;10148764;29;20100;-73
2022/04/12 04:35:23;;;;;;;10.25;4.93;;;;;;;1.84;70.67;100262.88;10150888;29;20132;-74
2022/04/12 04:40:24;;;;;;;6.63;4.78;;;;;;;2.10;69.92;100263.06;10146855;29;20053;-74
2022/04/12 04:45:26;;;;;;;9.43;4.95;;;;;;;2.39;67.88;100263.22;10147266;29;20056;-74
2022/04/12 04:50:30;;;;;;;7.85;5.22;;;;;;;2.76;66.22;100266.84;10147439;29;20053;-74
2022/04/12 04:55:35;;;;;;;6.22;4.50;;;;;;;2.76;65.78;100279.81;10151175;29;20514;-74
2022/04/12 05:00:37;;;;;;;6.30;3.70;;;;;;;3.06;64.43;100285.13;10146790;29;20044;-74
2022/04/12 05:05:39;;;;;;;4.55;3.25;;;;;;;3.06;64.80;100290.31;10146631;29;20067;-73
2022/04/12 05:10:40;;;;;;;6.63;3.47;;;;;;;3.08;65.06;100291.16;10146132;29;20448;-74
2022/04/12 05:15:42;;;;;;;6.45;3.75;;;;;;;3.43;63.09;100294.72;10148342;29;20083;-74
2022/04/12 05:20:44;;;;;;;4.07;3.45;;;;;;;3.54;62.88;100298.19;10148898;29;20049;-75
2022/04/12 05:25:45;;;;;;;7.50;3.67;;;;;;;3.71;61.89;100297.31;10147074;29;20048;-75
2022/04/12 05:30:49;;;;;;;4.05;2.95;;;;;;;3.80;61.80;100302.53;10146838;29;20511;-74
2022/04/12 05:35:51;;;;;;;4.57;3.00;;;;;;;4.10;60.54;100309.44;10130213;29;20136;-74
2022/04/12 05:40:53;;;;;;;5.60;3.38;;;;;;;4.11;60.69;100305.09;10147640;29;20400;-74
2022/04/12 05:45:55;;;;;;;3.15;2.63;;;;;;;4.36;59.33;100308.53;10146010;29;20123;-75
2022/04/12 05:50:57;;;;;;;5.50;3.83;;;;;;;4.49;58.78;100305.03;10147239;29;20056;-74
2022/04/12 05:55:58;;;;;;;3.97;3.30;;;;;;;4.71;58.17;100303.25;10145049;29;20131;-74
2022/04/12 06:01:01;;;;;;;7.95;3.35;;;;;;;4.88;58.38;100305.78;10149874;29;20525;-74
2022/04/12 06:06:03;;;;;;;6.57;2.92;;;;;;;5.62;55.69;100307.06;10146014;29;20081;-74
2022/04/12 06:11:05;;;;;;;5.45;3.40;;;;;;;6.15;54.16;100313.63;10142440;29;20048;-73
2022/04/12 06:16:07;;;;;;;4.70;3.22;;;;;;;6.15;54.95;100317.97;10142364;29;20139;-74
2022/04/12 06:21:09;;;;;;;4.00;3.42;;;;;;;6.65;53.87;100320.09;10145635;29;20074;-75
2022/04/12 06:26:11;;;;;;;6.85;4.00;;;;;;;7.23;51.52;100318.50;10143428;29;20105;-74
2022/04/12 06:31:13;;;;;;;3.97;2.53;;;;;;;7.41;50.81;100312.16;10157547;29;20045;-74
2022/04/12 06:36:16;;;;;;;8.50;3.33;;;;;;;7.52;50.69;100311.09;10141875;29;20108;-73
2022/04/12 06:41:18;;;;;;;5.28;3.05;;;;;;;7.67;50.78;100309.16;10143584;29;20056;-76
2022/04/12 06:46:20;;;;;;;3.55;2.67;;;;;;;7.56;51.61;100304.94;10160249;29;20076;-75
2022/04/12 06:51:22;;;;;;;4.88;3.60;;;;;;;7.60;53.52;100310.97;10141153;29;20072;-74
2022/04/12 06:56:23;;;;;;;10.70;3.38;;;;;;;7.97;50.25;100311.28;10142117;29;20049;-73
2022/04/12 07:01:26;;;;;;;5.30;2.90;;;;;;;7.93;50.85;100313.97;10156389;29;20096;-74
2022/04/12 07:06:27;;;;;;;5.13;3.08;;;;;;;8.18;49.38;100306.53;10143697;29;20128;-73
2022/04/12 07:11:29;;;;;;;5.22;3.45;;;;;;;8.43;49.21;100301.78;10142464;29;20164;-74
2022/04/12 07:16:31;;;;;;;5.97;3.58;;;;;;;8.35;51.07;100300.13;10141238;29;20079;-74
2022/04/12 07:21:33;;;;;;;4.55;2.75;;;;;;;8.59;48.35;100303.22;10157856;23;20053;-73
2022/04/12 07:26:36;;;;;;;8.35;3.83;;;;;;;8.89;48.32;100306.09;10214404;29;20060;-73
2022/04/12 07:31:38;;;;;;;4.68;2.70;;;;;;;9.01;48.33;100304.09;10215927;29;20044;-75
2022/04/12 07:36:43;;;;;;;5.28;2.95;;;;;;;9.18;47.32;100302.88;10215428;29;20077;-73
2022/04/12 07:41:49;;;;;;;3.30;2.83;;;;;;;9.25;47.25;100305.34;10216468;29;20055;-74
2022/04/12 07:46:50;;;;;;;3.80;2.65;;;;;;;9.68;47.43;100303.47;10215688;29;20477;-74
2022/04/12 07:51:52;;;;;;;3.53;2.45;;;;;;;9.96;45.40;100299.28;10216892;29;20051;-74
2022/04/12 07:56:54;;;;;;;4.13;2.50;;;;;;;10.29;45.26;100294.97;10216977;29;20059;-74
2022/04/12 08:01:56;;;;;;;3.72;3.13;;;;;;;10.72;44.12;100291.16;10232145;29;20040;-74
2022/04/12 08:06:59;;;;;;;5.07;3.08;;;;;;;11.05;44.81;100299.84;10222662;29;20099;-74
2022/04/12 08:12:00;;;;;;;5.35;2.85;;;;;;;11.46;43.74;100302.97;10255964;29;20071;-73
2022/04/12 08:17:02;;;;;;;4.00;3.00;;;;;;;11.72;43.65;100298.66;10241168;29;20139;-73
2022/04/12 08:22:04;;;;;;;3.78;2.55;;;;;;;12.00;42.28;100296.03;10214975;29;20134;-74
2022/04/12 08:27:13;;;;;;;5.05;2.90;;;;;;;12.59;41.59;100286.03;10217541;29;20043;-74
2022/04/12 08:32:16;;;;;;;4.88;2.75;;;;;;;12.74;41.68;100278.47;10215962;29;20043;-73
2022/04/12 08:37:18;;;;;;;5.18;2.65;;;;;;;12.74;41.30;100276.69;10194698;29;20044;-75
2022/04/12 08:42:21;;;;;;;4.03;2.50;;;;;;;13.04;40.05;100271.22;10216954;29;20054;-76
2022/04/12 08:47:24;;;;;;;6.20;2.90;;;;;;;13.42;38.35;100269.75;10218030;29;20539;-76
2022/04/12 08:52:27;;;;;;;3.65;2.55;;;;;;;13.57;38.36;100261.22;10206137;29;20122;-75
2022/04/12 08:57:29;;;;;;;5.18;3.10;;;;;;;13.81;38.63;100263.75;10221465;29;20055;-76
2022/04/12 09:02:30;;;;;;;2.90;2.50;;;;;;;14.45;38.46;100265.47;10222866;29;20110;-74
2022/04/12 09:07:32;;;;;;;4.63;2.70;;;;;;;14.84;37.39;100260.19;10224243;29;20042;-75
2022/04/12 09:12:34;;;;;;;2.92;1.77;;;;;;;15.45;35.93;100256.44;10223381;29;20048;-74
2022/04/12 09:17:38;;;;;;;3.42;1.63;;;;;;;15.27;31.66;100248.47;10222308;29;20516;-76
2022/04/12 09:22:40;;;;;;;1.70;1.17;;;;;;;15.10;30.77;100241.31;10221714;29;20075;-74
2022/04/12 09:27:49;;;;;;;2.42;1.20;;;;;;;15.08;31.94;100250.25;10221339;29;20107;-75
2022/04/12 09:32:51;;;;;;;3.85;1.58;;;;;;;14.98;31.01;100249.84;10221201;29;20099;-75
2022/04/12 09:37:52;;;;;;;1.52;1.30;;;;;;;15.45;31.85;100236.13;10221930;29;20047;-76
2022/04/12 09:42:57;;;;;;;3.15;1.58;;;;;;;15.77;31.52;100233.72;10221731;29;20058;-74
2022/04/12 09:48:04;;;;;;;2.53;1.60;;;;;;;15.34;31.05;100226.03;10221089;29;20051;-77
2022/04/12 09:53:40;;;;;;;1.75;1.42;;;;;;;15.83;32.00;100226.31;10219317;29;20054;-76
2022/04/12 09:58:44;;;;;;;2.97;1.57;;;;;;;16.04;30.87;100229.66;10219597;29;20103;-75
2022/04/12 10:03:51;;;;;;;2.40;1.40;;;;;;;15.73;29.26;100227.72;10220855;29;20152;-74
2022/04/12 10:08:55;;;;;;;2.13;1.52;;;;;;;15.68;31.34;100227.09;10220224;29;20115;-74
2022/04/12 10:14:00;;;;;;;2.38;1.73;;;;;;;15.96;29.56;100218.59;10219895;29;20052;-75
2022/04/12 10:19:03;;;;;;;2.58;1.75;;;;;;;16.02;30.99;100220.91;10218733;29;20043;-74
2022/04/12 10:24:06;;;;;;;3.42;1.45;;;;;;;16.48;29.04;100213.22;10219443;29;20047;-74
2022/04/12 10:29:07;;;;;;;1.75;1.23;;;;;;;16.59;31.02;100215.28;10219815;29;20039;-75
2022/04/12 10:34:11;;;;;;;2.10;1.42;;;;;;;16.62;28.77;100210.69;10202405;29;20067;-75
2022/04/12 10:39:14;;;;;;;3.38;1.40;;;;;;;16.95;27.72;100195.66;10220168;29;20078;-75
2022/04/12 10:44:20;;;;;;;3.05;1.70;;;;;;;17.07;30.04;100185.22;10219439;29;20091;-75
2022/04/12 10:49:21;;;;;;;2.90;1.88;;;;;;;17.08;29.67;100186.94;10201830;29;20050;-75
2022/04/12 10:54:33;;;;;;;2.55;1.67;;;;;;;16.36;29.61;100176.72;10218526;29;20044;-74
2022/04/12 10:59:39;;;;;;;2.08;1.63;;;;;;;17.24;31.10;100178.09;10217621;29;20048;-75
2022/04/12 11:04:41;;;;;;;2.75;1.60;;;;;;;17.25;29.07;100177.16;10218976;29;20469;-74
2022/04/12 11:10:06;;;;;;;1.95;1.30;;;;;;;16.99;28.37;100183.94;10218643;29;20051;-74
2022/04/12 11:15:29;;;;;;;1.97;1.10;;;;;;;16.98;26.58;100184.88;10201674;29;20055;-74
2022/04/12 11:20:31;;;;;;;2.05;1.17;;;;;;;16.92;27.50;100178.13;10217318;29;20047;-76
2022/04/12 11:25:33;;;;;;;2.83;1.30;;;;;;;16.49;27.24;100188.41;10219279;29;20048;-75
2022/04/12 11:30:38;;;;;;;1.73;1.63;;;;;;;17.23;30.90;100197.66;10219031;29;20054;-76
2022/04/12 11:35:40;;;;;;;1.70;1.60;;;;;;;17.36;27.71;100193.34;10217812;29;20051;-76
2022/04/12 11:40:43;;;;;;;2.47;1.75;;;;;;;16.48;27.42;100175.22;10215227;29;20051;-75
2022/04/12 11:45:44;;;;;;;2.17;1.67;;;;;;;17.37;27.53;100177.31;10200536;29;20108;-74
2022/04/12 11:50:53;;;;;;;4.75;2.30;;;;;;;17.44;29.56;100169.84;10216034;29;20444;-74
2022/04/12 11:56:00;;;;;;;2.00;1.80;;;;;;;17.51;28.21;100162.38;10216830;29;20054;-74
2022/04/12 12:01:01;;;;;;;3.42;2.25;;;;;;;17.44;28.32;100168.97;10216007;29;20047;-73
2022/04/12 12:06:03;;;;;;;3.45;2.03;;;;;;;17.21;28.12;100175.63;10216188;29;20058;-75
2022/04/12 12:11:11;;;;;;;2.45;1.90;;;;;;;17.31;28.94;100180.34;10216211;29;20040;-75
2022/04/12 12:16:15;;;;;;;2.40;1.45;;;;;;;17.49;28.21;100197.03;10197472;29;20047;-74
2022/04/12 12:21:18;;;;;;;2.42;1.33;;;;;;;17.59;28.84;100168.09;10217607;29;20459;-75
2022/04/12 12:26:28;;;;;;;3.42;1.75;;;;;;;17.26;28.57;100158.47;10223684;29;20415;-75
2022/04/12 12:31:43;;;;;;;3.47;2.15;;;;;;;17.32;28.13;100157.28;10225285;29;20052;-74
2022/04/12 12:36:49;;;;;;;4.63;2.22;;;;;;;17.05;27.23;100149.94;10224597;29;20161;-75
2022/04/12 12:41:56;;;;;;;5.88;2.67;;;;;;;17.09;28.05;100148.81;10225657;29;20051;-76
2022/04/12 12:47:02;;;;;;;3.58;2.47;;;;;;;17.09;28.36;100145.31;10226377;29;20048;-75
2022/04/12 12:52:10;;;;;;;2.88;2.22;;;;;;;16.97;29.01;100127.41;10224870;29;20047;-74
2022/04/12 12:57:12;;;;;;;2.15;1.95;;;;;;;17.14;27.84;100120.19;10222119;29;20065;-74
2022/04/12 13:02:14;;;;;;;2.75;2.55;;;;;;;17.20;28.29;100116.31;10237421;29;20052;-75
2022/04/12 13:07:17;;;;;;;2.30;2.10;;;;;;;17.21;26.87;100125.16;10235945;29;20047;-74
2022/04/12 13:12:18;;;;;;;2.97;2.00;;;;;;;17.10;27.56;100120.47;10245030;29;20051;-75
2022/04/12 13:17:20;;;;;;;3.08;1.98;;;;;;;17.28;27.38;100115.88;10234719;29;20065;-75
2022/04/12 13:27:38;;;;;;;3.88;2.78;;;;;;;17.12;28.93;100122.06;10102956;29;20053;-74
2022/04/12 13:32:42;;;;;;;3.20;2.90;;;;;;;17.07;28.20;100112.66;10088212;29;20503;-74
2022/04/12 13:37:45;;;;;;;4.93;3.78;;;;;;;16.82;27.75;100114.06;10091924;29;20049;-74
2022/04/12 13:42:52;;;;;;;3.47;2.60;;;;;;;16.71;28.60;100111.13;10077782;29;20515;-76
2022/04/12 13:47:54;;;;;;;3.58;3.28;;;;;;;17.06;27.65;100105.66;10094201;29;20411;-75
2022/04/12 13:52:56;;;;;;;3.00;2.70;;;;;;;16.77;28.58;100104.63;10088156;29;20052;-75
2022/04/12 13:57:58;;;;;;;6.32;4.20;;;;;;;16.98;28.32;100107.88;10105622;29;20041;-76
2022/04/12 14:02:59;;;;;;;4.55;4.10;;;;;;;16.80;28.87;100094.69;10108078;29;20567;-76
2022/04/12 14:08:01;;;;;;;5.50;5.00;;;;;;;16.91;28.83;100083.50;10105440;29;20499;-74
2022/04/12 14:13:05;;;;;;;4.75;4.35;;;;;;;17.09;27.46;100086.88;10088514;29;20041;-75
2022/04/12 14:18:07;;;;;;;4.75;4.03;;;;;;;16.88;28.49;100094.28;10088392;29;20059;-75
2022/04/12 14:23:10;;;;;;;5.35;4.95;;;;;;;16.70;28.50;100084.66;10087833;29;20530;-76
2022/04/12 14:28:12;;;;;;;4.07;3.78;;;;;;;16.55;28.82;100099.63;10106480;29;20097;-77
2022/04/12 14:33:13;;;;;;;7.22;4.90;;;;;;;16.86;28.00;100093.50;10104996;29;20049;-76
2022/04/12 14:38:15;;;;;;;6.10;4.72;;;;;;;16.84;28.22;100100.69;10103721;29;20045;-77
2022/04/12 14:43:17;;;;;;;5.30;4.90;;;;;;;16.94;27.59;100083.28;10103479;29;20053;-72
2022/04/12 14:48:19;;;;;;;4.97;4.57;;;;;;;17.04;27.83;100088.94;10105932;29;20110;-74
2022/04/12 14:53:22;;;;;;;5.10;4.68;;;;;;;17.06;27.80;100090.56;10104709;29;20059;-73
2022/04/12 14:58:29;;;;;;;5.93;5.43;;;;;;;16.81;29.19;100088.44;10086064;29;20049;-75
2022/04/12 15:03:30;;;;;;;7.00;5.50;;;;;;;17.05;28.24;100086.22;10104045;29;20384;-76
2022/04/12 15:08:32;;;;;;;6.13;5.63;;;;;;;17.13;28.74;100089.28;10104538;29;20137;-75
2022/04/12 15:13:35;;;;;;;6.13;5.50;;;;;;;17.02;28.24;100097.00;10072375;29;20550;-75
2022/04/12 15:18:37;;;;;;;6.60;5.90;;;;;;;16.81;28.15;100090.25;10101895;29;20414;-74
2022/04/12 15:23:39;;;;;;;6.15;5.30;;;;;;;16.85;28.92;100087.34;10084847;29;20048;-75
2022/04/12 15:28:40;;;;;;;5.97;5.43;;;;;;;16.71;28.97;100089.03;10084871;29;20048;-74
2022/04/12 15:33:42;;;;;;;5.47;5.03;;;;;;;17.03;28.43;100080.09;10105170;29;20068;-75
2022/04/12 15:38:49;;;;;;;5.22;4.72;;;;;;;17.14;28.53;100082.16;10102017;29;20464;-75
2022/04/12 15:43:51;;;;;;;6.63;6.03;;;;;;;16.85;28.45;100086.47;10068841;29;20067;-75
2022/04/12 15:48:53;;;;;;;7.30;6.00;;;;;;;17.05;28.42;100088.88;10084255;29;20056;-74
2022/04/12 15:53:54;;;;;;;8.43;5.53;;;;;;;16.86;28.55;100101.47;10086732;29;20055;-76
2022/04/12 15:58:56;;;;;;;6.85;6.25;;;;;;;16.78;28.49;100093.09;10083792;29;20098;-76
2022/04/12 16:03:58;;;;;;;5.72;5.22;;;;;;;16.52;29.82;100089.22;10100216;29;20045;-76
2022/04/12 16:09:00;;;;;;;7.72;7.07;;;;;;;16.49;28.85;100092.88;10102884;29;20048;-76
2022/04/12 16:14:01;;;;;;;8.15;7.45;;;;;;;16.36;29.98;100090.03;10102519;29;20084;-77
2022/04/12 16:19:03;;;;;;;7.70;7.10;;;;;;;16.52;29.53;100092.72;10087179;29;20448;-75
2022/04/12 16:24:05;;;;;;;8.38;6.88;;;;;;;16.58;30.11;100099.47;10101795;29;20053;-75
2022/04/12 16:29:07;;;;;;;7.72;6.90;;;;;;;16.37;30.05;100086.44;10103916;29;20060;-77
2022/04/12 16:34:09;;;;;;;8.80;8.10;;;;;;;16.27;30.94;100089.69;10102161;29;20040;-76
2022/04/12 16:39:10;;;;;;;11.60;9.13;;;;;;;16.22;30.31;100092.59;10087885;29;20076;-75
2022/04/12 16:44:12;;;;;;;8.73;7.97;;;;;;;15.94;31.06;100098.53;10100755;29;20411;-75
2022/04/12 16:49:14;;;;;;;9.73;8.93;;;;;;;15.94;31.04;100100.28;10083165;29;20045;-75
2022/04/12 16:54:16;;;;;;;9.20;8.40;;;;;;;15.95;30.91;100089.63;10085838;29;20059;-76
2022/04/12 16:59:18;;;;;;;8.95;8.18;;;;;;;15.79;30.83;100088.72;10105203;29;20047;-77
2022/04/12 17:04:20;;;;;;;9.65;8.75;;;;;;;15.70;31.02;100091.84;10070764;29;20143;-77
2022/04/12 17:09:24;;;;;;;9.43;8.63;;;;;;;15.35;32.53;100089.16;10088939;29;20418;-76
2022/04/12 17:14:27;;;;;;;8.57;7.88;;;;;;;15.61;31.43;100088.69;10109545;29;20044;-74
2022/04/12 17:19:28;;;;;;;9.23;7.50;;;;;;;15.48;32.02;100092.06;10108978;29;20041;-75
2022/04/12 17:24:30;;;;;;;9.07;8.27;;;;;;;15.07;33.43;100084.41;10093874;29;20049;-73
2022/04/12 17:29:32;;;;;;;9.18;8.38;;;;;;;14.93;33.94;100087.72;10107061;29;20051;-74
2022/04/12 17:34:33;;;;;;;8.52;7.72;;;;;;;14.85;33.84;100092.53;10090372;29;20053;-73
2022/04/12 17:39:35;;;;;;;8.13;7.32;;;;;;;14.77;34.09;100081.47;10105806;29;20045;-74
2022/04/12 17:44:39;;;;;;;8.07;7.38;;;;;;;14.42;34.86;100078.66;10110756;29;20049;-73
2022/04/12 17:49:40;;;;;;;7.57;6.90;;;;;;;14.21;35.23;100077.00;10089900;29;20053;-74
2022/04/12 17:54:42;;;;;;;7.00;6.40;;;;;;;14.20;35.24;100067.38;10107487;29;20052;-73
2022/04/12 17:59:44;;;;;;;6.97;5.75;;;;;;;14.13;35.39;100066.81;10106991;29;20049;-73
2022/04/12 18:04:47;;;;;;;6.40;5.05;;;;;;;13.92;35.69;100065.13;10092191;29;20119;-73
2022/04/12 18:09:50;;;;;;;6.10;5.50;;;;;;;13.84;36.20;100073.41;10106758;29;20056;-74
2022/04/12 18:14:52;;;;;;;5.70;5.07;;;;;;;13.93;35.66;100069.50;10106418;29;20055;-73
2022/04/12 18:19:54;;;;;;;6.40;5.80;;;;;;;13.90;35.81;100075.78;10105509;29;20415;-73
2022/04/12 18:24:59;;;;;;;5.22;4.70;;;;;;;13.67;36.60;100081.22;10089048;29;20049;-74
2022/04/12 18:30:01;;;;;;;5.80;5.30;;;;;;;13.29;36.93;100081.94;10105595;29;20048;-73
2022/04/12 18:35:05;;;;;;;5.50;5.00;;;;;;;13.29;37.19;100075.81;10104363;29;20076;-74
2022/04/12 18:40:08;;;;;;;6.75;5.30;;;;;;;13.24;37.26;100077.78;10086071;29;20045;-73
2022/04/12 18:45:10;;;;;;;5.22;4.63;;;;;;;13.01;37.96;100082.19;10087680;29;20053;-73
2022/04/12 18:50:12;;;;;;;5.72;5.22;;;;;;;13.06;38.36;100082.88;10107134;29;20411;-73
2022/04/12 18:55:14;;;;;;;6.70;5.57;;;;;;;12.80;38.50;100091.00;10086801;29;20053;-74
2022/04/12 19:00:17;;;;;;;6.57;5.97;;;;;;;12.82;38.57;100097.91;10086189;29;20076;-73
2022/04/12 19:05:22;;;;;;;6.50;5.88;;;;;;;12.68;39.02;100088.84;10071683;29;20053;-73
2022/04/12 19:10:25;;;;;;;6.60;5.97;;;;;;;12.37;39.59;100085.59;10106633;29;20090;-73
2022/04/12 19:15:26;;;;;;;7.07;6.38;;;;;;;12.35;39.56;100087.44;10103175;29;20060;-73
2022/04/12 19:20:28;;;;;;;6.35;5.15;;;;;;;11.95;40.19;100084.56;10105714;29;20040;-74
2022/04/12 19:25:32;;;;;;;5.70;5.20;;;;;;;12.06;39.99;100078.00;10132659;23;20061;-68
2022/04/12 19:30:34;;;;;;;6.70;6.18;;;;;;;11.97;40.34;100080.97;10174903;29;20052;-68
2022/04/12 19:35:38;;;;;;;6.50;5.82;;;;;;;12.07;39.67;100069.16;10197113;29;20052;-68
2022/04/12 19:40:39;;;;;;;6.18;5.57;;;;;;;12.04;40.18;100069.31;10214125;29;20044;-69
2022/04/12 19:45:41;;;;;;;6.07;5.47;;;;;;;11.94;40.18;100072.31;10214715;29;20055;-68
2022/04/12 19:50:43;;;;;;;6.45;4.88;;;;;;;11.72;40.45;100075.69;10213702;29;20119;-69
2022/04/12 19:55:44;;;;;;;5.50;5.00;;;;;;;11.53;41.41;100079.91;10196847;29;20060;-68
2022/04/12 20:00:45;;;;;;;8.35;4.97;;;;;;;11.63;41.19;100078.66;10214582;29;20047;-69
2022/04/12 20:05:47;;;;;;;6.28;5.68;;;;;;;11.61;41.04;100080.50;10213236;29;20382;-69
2022/04/12 20:10:49;;;;;;;6.13;5.63;;;;;;;11.14;42.00;100084.75;10214147;29;20040;-69
2022/04/12 20:15:50;;;;;;;5.90;5.32;;;;;;;10.76;42.76;100085.09;10213200;29;20458;-69
2022/04/12 20:20:52;;;;;;;5.80;5.30;;;;;;;10.75;43.04;100078.09;10213519;29;20040;-70
2022/04/12 20:25:54;;;;;;;7.05;5.38;;;;;;;10.68;43.12;100076.56;10212700;29;20494;-69
2022/04/12 20:30:57;;;;;;;6.95;5.07;;;;;;;10.51;43.54;100076.25;10212390;29;20048;-69
2022/04/12 20:35:58;;;;;;;5.38;4.88;;;;;;;10.63;43.13;100073.25;10213013;29;20054;-69
2022/04/12 20:41:00;;;;;;;5.07;4.68;;;;;;;10.61;43.60;100067.16;10212977;29;20549;-69
2022/04/12 20:46:01;;;;;;;5.90;5.30;;;;;;;10.31;44.54;100068.94;10220500;29;20043;-68
2022/04/12 20:51:03;;;;;;;6.05;5.45;;;;;;;10.31;44.75;100063.69;10220985;29;20059;-68
2022/04/12 20:56:05;;;;;;;7.13;5.13;;;;;;;10.09;44.96;100074.81;10220736;29;20506;-68
2022/04/12 21:01:07;;;;;;;7.75;5.63;;;;;;;10.40;44.95;100073.91;10219549;29;20044;-69
2022/04/12 21:06:08;;;;;;;7.70;5.20;;;;;;;10.25;45.84;100074.41;10219467;29;20048;-69
2022/04/12 21:11:10;;;;;;;6.07;5.57;;;;;;;10.27;45.86;100072.56;10219611;29;20048;-68
2022/04/12 21:16:13;;;;;;;6.63;5.22;;;;;;;9.89;47.06;100065.78;10219616;29;20412;-69
2022/04/12 21:21:15;;;;;;;6.55;5.93;;;;;;;9.65;47.65;100067.31;10219238;29;20122;-69
2022/04/12 21:26:17;;;;;;;6.10;5.50;;;;;;;9.56;47.71;100066.69;10219487;29;20509;-69
2022/04/12 21:31:21;;;;;;;5.82;5.22;;;;;;;9.33;47.79;100075.16;10218988;29;20076;-69
2022/04/12 21:36:23;;;;;;;6.25;5.65;;;;;;;9.26;47.93;100068.38;10219347;29;20047;-69
2022/04/12 21:41:25;;;;;;;5.95;5.20;;;;;;;9.53;48.00;100061.53;10218884;29;20452;-69
2022/04/12 21:46:27;;;;;;;6.63;5.40;;;;;;;9.65;47.58;100073.47;10219112;29;20063;-69
2022/04/12 21:51:28;;;;;;;5.72;5.13;;;;;;;9.48;48.08;100070.44;10201437;29;20486;-69
2022/04/12 21:56:31;;;;;;;6.65;5.97;;;;;;;9.57;47.75;100057.06;10217255;29;20051;-69
2022/04/12 22:01:33;;;;;;;5.82;5.30;;;;;;;9.58;47.63;100062.25;10217413;29;20538;-69
2022/04/12 22:06:34;;;;;;;6.20;5.57;;;;;;;9.43;47.87;100061.78;10218269;29;20409;-69
2022/04/12 22:11:36;;;;;;;6.22;5.63;;;;;;;9.12;48.28;100066.97;10200522;29;20048;-69
2022/04/12 22:16:38;;;;;;;6.00;5.45;;;;;;;9.16;48.47;100081.72;10216876;29;20053;-69
2022/04/12 22:21:40;;;;;;;5.85;4.75;;;;;;;9.10;48.97;100082.75;10199883;29;20127;-69
2022/04/12 22:26:42;;;;;;;6.47;5.82;;;;;;;9.08;48.55;100088.03;10216815;29;20047;-69
2022/04/12 22:31:44;;;;;;;6.20;5.18;;;;;;;9.26;48.07;100088.50;10216716;29;20554;-69
2022/04/12 22:36:45;;;;;;;6.20;5.60;;;;;;;9.92;46.25;100084.09;10216100;29;20059;-68
2022/04/12 22:41:47;;;;;;;5.97;5.07;;;;;;;9.35;47.73;100085.63;10215968;29;20056;-69
2022/04/12 22:46:49;;;;;;;7.78;7.03;;;;;;;9.19;48.06;100082.53;10216002;29;20103;-69
2022/04/12 22:51:51;;;;;;;5.97;5.32;;;;;;;8.97;48.97;100086.56;10198571;29;20043;-69
2022/04/12 22:56:52;;;;;;;6.30;5.65;;;;;;;9.26;48.44;100094.59;10215363;29;20051;-69
2022/04/12 23:01:54;;;;;;;5.63;5.07;;;;;;;8.97;48.96;100100.53;10214804;29;20048;-69
2022/04/12 23:06:55;;;;;;;6.82;6.18;;;;;;;8.91;49.26;100119.06;10214932;29;20043;-69
2022/04/12 23:11:57;;;;;;;8.23;5.70;;;;;;;9.10;49.83;100103.72;10214652;29;20043;-69
2022/04/12 23:16:58;;;;;;;6.07;5.47;;;;;;;8.77;50.44;100097.56;10214557;29;20048;-69
2022/04/12 23:22:00;;;;;;;5.80;5.25;;;;;;;8.46;51.24;100085.16;10198594;29;20043;-69
2022/04/12 23:27:02;;;;;;;6.47;5.72;;;;;;;8.23;51.60;100092.59;10214044;29;20047;-69